Time,TemperatureC,DewpointC,PressurehPa,WindDirection,WindDirectionDegrees,WindSpeedKMH,WindSpeedGustKMH,Humidity,HourlyPrecipMM,Conditions,Clouds,dailyrainMM,SolarRadiationWatts/m^2,UVIndex,SoftwareType,DateUTC
2026-05-08 00:03:49,8,9.3,1004.5,East,90,0.5,1.3,83.2,0.0,,,0.0,2,0,n/a,2026-05-07T22:03:49Z
2026-05-08 00:09:48,8,9.3,1004.5,East,90,0.2,0.7,83.2,0.0,,,0.0,2,0,n/a,2026-05-07T22:09:48Z
2026-05-08 00:12:49,7.9,9.4,1004.3,East,90,1.7,2,83.2,0.0,,,0.0,2,0,n/a,2026-05-07T22:12:49Z
2026-05-08 00:18:49,7.9,9.3,1004.5,East,90,3.2,4.5,82.9,0.0,,,0.0,2,0,n/a,2026-05-07T22:18:49Z
2026-05-08 00:24:49,7.9,9.2,1004.3,ENE,75,1.6,2.1,83,0.0,,,0.0,0,0,n/a,2026-05-07T22:24:49Z
2026-05-08 00:27:45,7.9,9.3,1004.3,East,90,0.7,0.7,82.9,0.0,,,0.0,0,0,n/a,2026-05-07T22:27:45Z
2026-05-08 00:33:49,7.9,9.3,1004.5,ESE,112,0.3,0.7,83.4,0.0,,,0.0,0,0,n/a,2026-05-07T22:33:49Z
2026-05-08 00:39:48,7.9,9.3,1004.3,ESE,112,0,0,83.5,0.0,,,0.0,2,0,n/a,2026-05-07T22:39:48Z
2026-05-08 00:42:48,7.9,9.3,1004.3,ESE,112,0,0,83.6,0.0,,,0.0,0,0,n/a,2026-05-07T22:42:48Z
2026-05-08 00:48:49,7.8,9.3,1004.5,East,90,0.2,0.5,83.3,0.0,,,0.0,2,0,n/a,2026-05-07T22:48:49Z
2026-05-08 00:51:49,7.8,9.3,1004.3,East,90,0,0,83.4,0.0,,,0.0,0,0,n/a,2026-05-07T22:51:49Z
2026-05-08 00:57:49,7.8,9.4,1004.5,East,90,0,0,83.8,0.0,,,0.0,2,0,n/a,2026-05-07T22:57:49Z
2026-05-08 01:03:45,7.8,9.3,1004.5,SE,135,0.4,0.7,83.6,0.0,,,0.0,2,0,n/a,2026-05-07T23:03:45Z
2026-05-08 01:09:49,7.8,9.3,1004.5,North,0,0,0,83.6,0.0,,,0.0,2,0,n/a,2026-05-07T23:09:49Z
2026-05-08 01:12:49,7.8,9.4,1004.3,East,90,0,0,83.8,0.0,,,0.0,2,0,n/a,2026-05-07T23:12:49Z
2026-05-08 01:18:48,7.6,9.2,1004.3,East,90,0.6,1.3,83.5,0.0,,,0.0,2,0,n/a,2026-05-07T23:18:48Z
2026-05-08 01:24:45,7.6,9.2,1004.3,NNW,337,0.4,0.6,83.4,0.0,,,0.0,2,0,n/a,2026-05-07T23:24:45Z
2026-05-08 01:27:49,7.7,9,1004.3,NE,56,0.8,1,82.5,0.0,,,0.0,2,0,n/a,2026-05-07T23:27:49Z
2026-05-08 01:33:48,7.7,9,1004.5,NNW,337,0,0,82.9,0.0,,,0.0,2,0,n/a,2026-05-07T23:33:48Z
2026-05-08 01:39:48,7.7,9,1004.3,ENE,72,1.4,2.7,82.9,0.0,,,0.0,2,0,n/a,2026-05-07T23:39:48Z
2026-05-08 01:42:45,7.7,9.1,1004.3,NE,45,0.7,0.7,83.3,0.0,,,0.0,0,0,n/a,2026-05-07T23:42:45Z
2026-05-08 01:48:48,7.7,9,1004.3,North,0,0.5,1.3,83.2,0.0,,,0.0,2,0,n/a,2026-05-07T23:48:48Z
2026-05-08 01:54:48,7.7,9,1004.3,East,90,0.2,0.6,83.2,0.0,,,0.0,2,0,n/a,2026-05-07T23:54:48Z
2026-05-08 01:57:48,7.7,9,1004.3,East,90,4.1,4.3,83.4,0.0,,,0.0,0,0,n/a,2026-05-07T23:57:48Z
2026-05-08 02:03:45,7.7,9,1004.3,East,80,4.3,6.6,83.3,0.0,,,0.0,2,0,n/a,2026-05-08T00:03:45Z
2026-05-08 02:09:48,7.7,9,1004.5,East,90,3.4,3.9,83.9,0.0,,,0.0,0,0,n/a,2026-05-08T00:09:48Z
2026-05-08 02:12:48,7.8,9,1004.3,East,90,8.1,9.2,84.2,0.0,,,0.0,2,0,n/a,2026-05-08T00:12:48Z
2026-05-08 02:18:48,7.7,9,1004.3,ENE,69,4,4.9,84.5,0.0,,,0.0,2,0,n/a,2026-05-08T00:18:48Z
2026-05-08 02:24:45,7.7,9,1004.3,East,83,4.5,5.2,84.4,0.0,,,0.0,2,0,n/a,2026-05-08T00:24:45Z
2026-05-08 02:27:49,7.7,9,1004.3,ENE,77,5.3,5.9,84.4,0.0,,,0.0,0,0,n/a,2026-05-08T00:27:49Z
2026-05-08 02:33:48,7.7,9,1004.5,East,82,1,1.7,84.5,0.0,,,0.0,2,0,n/a,2026-05-08T00:33:48Z
2026-05-08 02:36:48,7.7,9,1004.5,East,90,1.8,2,84.4,0.0,,,0.0,0,0,n/a,2026-05-08T00:36:48Z
2026-05-08 02:42:49,7.8,9.1,1004.5,East,90,0,0,84.6,0.0,,,0.0,2,0,n/a,2026-05-08T00:42:49Z
2026-05-08 02:48:49,7.7,9.1,1004.5,ENE,67,0.6,0.7,84.4,0.0,,,0.0,2,0,n/a,2026-05-08T00:48:49Z
2026-05-08 02:54:49,7.7,9.1,1004.3,ENE,67,0.1,0.5,84.3,0.0,,,0.0,2,0,n/a,2026-05-08T00:54:49Z
2026-05-08 02:57:49,7.7,9.1,1004.3,East,79,0.6,0.6,84.3,0.0,,,0.0,0,0,n/a,2026-05-08T00:57:49Z
2026-05-08 03:03:49,7.7,9.1,1004.3,East,90,0.3,0.6,84.2,0.0,,,0.0,0,0,n/a,2026-05-08T01:03:49Z
2026-05-08 03:09:48,7.6,9.1,1004.3,ENE,67,0.6,1.9,84.2,0.0,,,0.0,2,0,n/a,2026-05-08T01:09:48Z
2026-05-08 03:12:49,7.6,9,1004.3,East,90,0,0,84.1,0.0,,,0.0,2,0,n/a,2026-05-08T01:12:49Z
2026-05-08 03:18:48,7.6,9,1004.3,East,90,1.9,2.6,84,0.0,,,0.0,2,0,n/a,2026-05-08T01:18:48Z
2026-05-08 03:24:48,7.6,9,1004.3,East,90,0,0,84,0.0,,,0.0,2,0,n/a,2026-05-08T01:24:48Z
2026-05-08 03:27:45,7.6,9.1,1004.3,ENE,67,0,0,84.3,0.0,,,0.0,2,0,n/a,2026-05-08T01:27:45Z
2026-05-08 03:33:49,7.5,9.1,1004.3,NNE,22,0.7,1.6,84.2,0.0,,,0.0,2,0,n/a,2026-05-08T01:33:49Z
2026-05-08 03:39:48,7.5,9,1004.3,North,0,1.3,1.6,83.9,0.0,,,0.0,2,0,n/a,2026-05-08T01:39:48Z
2026-05-08 03:42:49,7.5,8.9,1004.3,NNE,22,0.5,0.7,83.5,0.0,,,0.0,0,0,n/a,2026-05-08T01:42:49Z
2026-05-08 03:48:45,7.4,8.8,1004.3,NNW,345,1.2,2.2,83.5,0.0,,,0.0,2,0,n/a,2026-05-08T01:48:45Z
2026-05-08 03:54:49,7.4,8.8,1004.3,NE,45,0.9,1.9,83.6,0.0,,,0.0,2,0,n/a,2026-05-08T01:54:49Z
2026-05-08 03:57:48,7.3,8.7,1004.0,North,0,1.4,1.7,83.6,0.0,,,0.0,2,0,n/a,2026-05-08T01:57:48Z
2026-05-08 04:03:49,7.3,8.7,1004.3,North,0,0.3,0.6,83.5,0.0,,,0.0,0,0,n/a,2026-05-08T02:03:49Z
2026-05-08 04:09:45,7.3,8.7,1004.3,North,0,0,0,83.5,0.0,,,0.0,2,0,n/a,2026-05-08T02:09:45Z
2026-05-08 04:12:48,7.3,8.8,1004.3,East,90,1.5,1.6,83.5,0.0,,,0.0,2,0,n/a,2026-05-08T02:12:48Z
2026-05-08 04:18:49,7.3,8.7,1004.3,East,90,0,0,83.7,0.0,,,0.0,0,0,n/a,2026-05-08T02:18:49Z
2026-05-08 04:24:49,7.3,8.7,1004.3,North,0,0.9,1.9,83.6,0.0,,,0.0,0,0,n/a,2026-05-08T02:24:49Z
2026-05-08 04:27:45,7.4,8.7,1004.3,ENE,67,0,0,83.9,0.0,,,0.0,0,0,n/a,2026-05-08T02:27:45Z
2026-05-08 04:33:48,7.4,8.7,1004.3,NE,54,1.1,1.6,84,0.0,,,0.0,2,0,n/a,2026-05-08T02:33:48Z
2026-05-08 04:39:49,7.4,8.7,1004.3,ENE,67,0,0,83.9,0.0,,,0.0,2,0,n/a,2026-05-08T02:39:49Z
2026-05-08 04:42:48,7.4,8.7,1004.3,NNE,28,0.9,1.1,83.9,0.0,,,0.0,2,0,n/a,2026-05-08T02:42:48Z
2026-05-08 04:48:45,7.4,8.7,1004.3,North,0,0.9,2.6,83.8,0.0,,,0.0,2,0,n/a,2026-05-08T02:48:45Z
2026-05-08 04:54:48,7.4,8.7,1004.3,North,0,1.9,2.2,83.9,0.0,,,0.0,0,0,n/a,2026-05-08T02:54:48Z
2026-05-08 04:57:48,7.5,8.7,1004.3,NNW,337,2.7,2.7,84.3,0.0,,,0.0,2,0,n/a,2026-05-08T02:57:48Z
2026-05-08 05:03:48,7.5,8.7,1004.3,North,0,1,2.1,84,0.0,,,0.0,2,0,n/a,2026-05-08T03:03:48Z
2026-05-08 05:09:45,7.5,8.8,1004.3,NE,45,0,0,84.2,0.0,,,0.0,2,0,n/a,2026-05-08T03:09:45Z
2026-05-08 05:12:49,7.4,8.8,1004.3,North,0,2,2.1,84.2,0.0,,,0.0,0,0,n/a,2026-05-08T03:12:49Z
2026-05-08 05:18:49,7.5,8.8,1004.3,North,0,0,0,84,0.0,,,0.0,2,0,n/a,2026-05-08T03:18:49Z
2026-05-08 05:24:49,7.5,8.8,1004.3,NNW,347,1.2,2.6,84,0.0,,,0.0,2,0,n/a,2026-05-08T03:24:49Z
2026-05-08 05:27:49,7.5,8.8,1004.3,North,0,0,0,84.3,0.0,,,0.0,2,0,n/a,2026-05-08T03:27:49Z
2026-05-08 05:33:48,7.5,8.8,1004.3,NE,45,0,0,84.2,0.0,,,0.0,2,0,n/a,2026-05-08T03:33:48Z
2026-05-08 05:39:49,7.4,8.8,1004.3,NNE,14,0.9,2.2,84,0.0,,,0.0,2,0,n/a,2026-05-08T03:39:49Z
2026-05-08 05:42:48,7.4,8.7,1004.3,NNE,22,1.4,1.6,83.7,0.0,,,0.0,4,0,n/a,2026-05-08T03:42:48Z
2026-05-08 05:48:48,7.4,8.6,1004.3,ENE,67,0.9,1.6,83.9,0.0,,,0.0,4,0,n/a,2026-05-08T03:48:48Z
2026-05-08 05:54:45,7.4,8.6,1004.5,NE,55,3.6,3.9,83.7,0.0,,,0.0,4,0,n/a,2026-05-08T03:54:45Z
2026-05-08 05:57:49,7.4,8.7,1004.5,East,90,4.6,5.2,84,0.0,,,0.0,4,0,n/a,2026-05-08T03:57:49Z
2026-05-08 06:03:48,7.4,8.7,1004.5,East,84,4.5,5.2,84.3,0.0,,,0.0,6,0,n/a,2026-05-08T04:03:48Z
2026-05-08 06:09:49,7.4,8.7,1004.5,ENE,78,2.8,3.3,84.2,0.0,,,0.0,10,0,n/a,2026-05-08T04:09:49Z
2026-05-08 06:12:45,7.4,8.6,1004.5,East,90,1.3,1.3,84.2,0.0,,,0.0,10,0,n/a,2026-05-08T04:12:45Z
2026-05-08 06:18:48,7.5,8.7,1004.8,ENE,67,0.6,1.3,84.3,0.0,,,0.0,12,0,n/a,2026-05-08T04:18:48Z
2026-05-08 06:24:48,7.5,8.8,1004.5,ENE,74,1.5,2.2,84.3,0.0,,,0.0,14,0,n/a,2026-05-08T04:24:48Z
2026-05-08 06:27:48,7.6,8.8,1004.8,East,90,2,2.1,84.4,0.0,,,0.0,14,0,n/a,2026-05-08T04:27:48Z
2026-05-08 06:33:45,7.6,8.7,1004.8,East,90,1,1.9,84.2,0.0,,,0.0,16,0,n/a,2026-05-08T04:33:45Z
2026-05-08 06:39:48,7.6,8.8,1004.8,East,90,5,5.8,84.3,0.0,,,0.0,18,0,n/a,2026-05-08T04:39:48Z
2026-05-08 06:42:48,7.7,8.8,1004.8,ENE,78,4.1,4.4,84.5,0.0,,,0.0,20,0,n/a,2026-05-08T04:42:48Z
2026-05-08 06:48:48,7.7,8.8,1004.8,East,90,3.5,3.9,84.9,0.0,,,0.0,24,0,n/a,2026-05-08T04:48:48Z
2026-05-08 06:54:49,7.7,8.8,1004.8,East,90,4.4,4.7,85.2,0.0,,,0.0,28,0,n/a,2026-05-08T04:54:49Z
2026-05-08 06:57:48,7.8,8.7,1004.8,East,90,7.4,7.8,84.9,0.0,,,0.0,30,0,n/a,2026-05-08T04:57:48Z
2026-05-08 07:03:49,7.8,8.9,1004.8,East,90,3.1,3.9,85,0.0,,,0.0,32,0,n/a,2026-05-08T05:03:49Z
2026-05-08 07:09:49,7.9,8.9,1004.8,ENE,67,1.5,2.1,84.9,0.0,,,0.0,36,0,n/a,2026-05-08T05:09:49Z
2026-05-08 07:12:45,7.9,9,1005.0,NE,45,1.2,1.3,84.9,0.0,,,0.0,36,0,n/a,2026-05-08T05:12:45Z
2026-05-08 07:18:48,8,8.8,1005.0,NNE,22,2.1,3.2,84.3,0.0,,,0.0,40,0,n/a,2026-05-08T05:18:48Z
2026-05-08 07:24:48,8,8.8,1004.8,NNE,29,2.3,2.7,83.9,0.0,,,0.0,48,0,n/a,2026-05-08T05:24:48Z
2026-05-08 07:27:48,8.1,8.8,1005.0,NNE,33,3.8,3.9,83.4,0.0,,,0.0,54,0,n/a,2026-05-08T05:27:48Z
2026-05-08 07:33:45,8.2,8.8,1005.0,NE,52,1.2,1.3,83.8,0.0,,,0.0,56,0,n/a,2026-05-08T05:33:45Z
2026-05-08 07:36:49,8.3,8.8,1005.2,NE,42,1.5,1.6,83.4,0.0,,,0.0,58,0,n/a,2026-05-08T05:36:49Z
2026-05-08 07:42:49,8.3,8.8,1005.2,North,0,1.9,2,83.2,0.0,,,0.0,58,0,n/a,2026-05-08T05:42:49Z
2026-05-08 07:48:48,8.4,8.8,1005.2,ENE,78,1.8,2.7,83,0.0,,,0.0,62,0,n/a,2026-05-08T05:48:48Z
2026-05-08 07:54:48,8.5,9,1005.2,ENE,78,1.8,2.6,83.2,0.0,,,0.0,66,0,n/a,2026-05-08T05:54:48Z
2026-05-08 07:57:49,8.6,8.8,1005.2,NNE,29,0.6,0.7,82.7,0.0,,,0.0,70,0,n/a,2026-05-08T05:57:49Z
2026-05-08 08:03:49,8.7,9,1005.2,ENE,63,0.7,1.3,82.7,0.0,,,0.0,72,0,n/a,2026-05-08T06:03:49Z
2026-05-08 08:09:49,8.7,9,1005.2,NNE,25,2.1,3.3,82.7,0.0,,,0.0,74,0,n/a,2026-05-08T06:09:49Z
2026-05-08 08:12:45,8.6,9,1005.2,NNE,22,1.9,1.9,82.2,0.0,,,0.0,72,0,n/a,2026-05-08T06:12:45Z
2026-05-08 08:18:48,8.6,8.8,1005.5,North,11,3.7,5.9,81.6,0.0,,,0.0,74,0,n/a,2026-05-08T06:18:48Z
2026-05-08 08:24:48,8.5,8.8,1005.5,North,0,7.4,9.4,81.3,0.0,,,0.0,80,0,n/a,2026-05-08T06:24:48Z
2026-05-08 08:27:48,8.7,8.8,1005.5,NE,45,0.3,0.7,81.3,0.0,,,0.0,82,0,n/a,2026-05-08T06:27:48Z
2026-05-08 08:33:45,8.8,8.8,1005.7,NNE,16,1,1.9,81.1,0.0,,,0.0,80,0,n/a,2026-05-08T06:33:45Z
2026-05-08 08:39:49,8.9,9,1005.7,NE,43,0.7,1.1,81.3,0.0,,,0.0,94,0,n/a,2026-05-08T06:39:49Z
2026-05-08 08:42:48,9.2,9,1005.7,ENE,67,0.6,0.7,81.3,0.0,,,0.0,102,0,n/a,2026-05-08T06:42:48Z
2026-05-08 08:48:49,9.3,9.1,1005.7,NE,52,1.3,2.2,81.2,0.0,,,0.0,108,0,n/a,2026-05-08T06:48:49Z
2026-05-08 08:54:45,9.5,9.2,1005.7,NNE,25,1,1.3,81.2,0.0,,,0.0,114,0,n/a,2026-05-08T06:54:45Z
2026-05-08 08:57:49,9.6,9.2,1005.7,North,0,3.6,4.7,80.6,0.0,,,0.0,118,0,n/a,2026-05-08T06:57:49Z
2026-05-08 09:03:49,9.6,9.2,1005.7,East,90,6.3,7.8,80.3,0.0,,,0.0,128,0,n/a,2026-05-08T07:03:49Z
2026-05-08 09:09:48,9.8,9,1005.7,ENE,75,3.1,4.5,79.2,0.0,,,0.0,140,0,n/a,2026-05-08T07:09:48Z
2026-05-08 09:12:45,10.1,9.2,1005.7,East,90,0.7,0.7,79.9,0.0,,,0.0,144,0,n/a,2026-05-08T07:12:45Z
2026-05-08 09:18:49,10.1,9.3,1006.0,East,80,7.2,8.6,79.6,0.0,,,0.0,156,0,n/a,2026-05-08T07:18:49Z
2026-05-08 09:21:49,10.1,9,1005.7,East,90,7.2,7.3,78.9,0.0,,,0.0,164,0,n/a,2026-05-08T07:21:49Z
2026-05-08 09:27:48,10.3,9,1006.0,East,90,7.2,7.2,78.2,0.0,,,0.0,182,0,n/a,2026-05-08T07:27:48Z
2026-05-08 09:33:45,10.5,9.2,1006.0,East,84,5.1,5.9,78.7,0.0,,,0.0,182,0,n/a,2026-05-08T07:33:45Z
2026-05-08 09:39:49,10.8,9.4,1006.2,NE,46,6,8.5,78.5,0.0,,,0.0,184,0,n/a,2026-05-08T07:39:49Z
2026-05-08 09:42:48,10.9,9.4,1006.2,East,90,4.1,4.4,78.4,0.0,,,0.0,186,0,n/a,2026-05-08T07:42:48Z
2026-05-08 09:48:48,10.9,9.6,1006.2,East,86,3.9,6.6,78.2,0.0,,,0.0,188,0,n/a,2026-05-08T07:48:48Z
2026-05-08 09:54:45,11.3,9.7,1006.2,ENE,75,2.9,4.3,78,0.0,,,0.0,198,0,n/a,2026-05-08T07:54:45Z
2026-05-08 09:57:49,11.3,9.4,1006.2,ENE,78,4.6,4.7,76.7,0.0,,,0.0,202,0,n/a,2026-05-08T07:57:49Z
2026-05-08 10:03:49,11.3,9.2,1006.2,ENE,63,6.4,7.1,75.5,0.0,,,0.0,210,0,n/a,2026-05-08T08:03:49Z
2026-05-08 10:09:49,11.4,9.2,1006.2,NNE,16,3.2,5.2,74.8,0.0,,,0.0,220,0,n/a,2026-05-08T08:09:49Z
2026-05-08 10:12:45,11.8,9.3,1006.2,East,90,3.3,3.3,74.7,0.0,,,0.0,220,0,n/a,2026-05-08T08:12:45Z
2026-05-08 10:18:49,11.9,9.5,1006.2,East,79,3.7,4.6,74.9,0.0,,,0.0,234,0,n/a,2026-05-08T08:18:49Z
2026-05-08 10:24:49,12,9.4,1006.2,NE,41,1.3,1.9,73.9,0.0,,,0.0,240,0,n/a,2026-05-08T08:24:49Z
2026-05-08 10:27:49,12.1,9.3,1006.2,East,90,0.9,1.3,72.3,0.0,,,0.0,220,0,n/a,2026-05-08T08:27:49Z
2026-05-08 10:33:45,12,9.5,1006.2,SE,135,1.9,3.3,72.8,0.0,,,0.0,212,0,n/a,2026-05-08T08:33:45Z
2026-05-08 10:39:48,11.8,9.6,1006.5,East,85,4.5,7.9,72.6,0.0,,,0.0,202,0,n/a,2026-05-08T08:39:48Z
2026-05-08 10:42:48,11.6,9.6,1006.2,ENE,67,7.4,8.5,73,0.0,,,0.0,198,0,n/a,2026-05-08T08:42:48Z
2026-05-08 10:48:48,11.8,9.7,1006.5,East,87,5,8.2,74.1,0.0,,,0.0,194,0,n/a,2026-05-08T08:48:48Z
2026-05-08 10:54:45,11.9,9.7,1006.5,ENE,73,3.3,3.9,73.7,0.0,,,0.0,192,0,n/a,2026-05-08T08:54:45Z
2026-05-08 10:57:49,11.8,9.4,1006.5,East,90,6.1,6.5,72.6,0.0,,,0.0,194,0,n/a,2026-05-08T08:57:49Z
2026-05-08 11:03:48,12,9.7,1006.2,East,90,2.3,4.2,72.8,0.0,,,0.0,202,0,n/a,2026-05-08T09:03:48Z
2026-05-08 11:09:48,12.2,9.4,1006.2,ENE,61,1.6,2.1,71.6,0.0,,,0.0,210,0,n/a,2026-05-08T09:09:48Z
2026-05-08 11:12:48,12.2,9.6,1006.2,East,90,3.8,3.9,71.9,0.0,,,0.0,220,0,n/a,2026-05-08T09:12:48Z
2026-05-08 11:18:48,12.4,9.5,1006.2,ENE,63,5,5.8,71.7,0.0,,,0.0,240,0,n/a,2026-05-08T09:18:48Z
2026-05-08 11:24:48,12.4,9.5,1006.2,East,90,6.2,6.7,72,0.0,,,0.0,246,0,n/a,2026-05-08T09:24:48Z
2026-05-08 11:27:49,12.5,9.5,1006.2,NE,34,5.3,5.8,71.2,0.0,,,0.0,246,0,n/a,2026-05-08T09:27:49Z
2026-05-08 11:33:48,12.6,9.5,1006.2,East,89,2.8,3.9,71.3,0.0,,,0.0,252,0,n/a,2026-05-08T09:33:48Z
2026-05-08 11:39:48,12.8,9.5,1006.2,East,90,3.1,4.6,70.3,0.0,,,0.0,272,0,n/a,2026-05-08T09:39:48Z
2026-05-08 11:42:49,13.1,9.9,1006.2,NE,45,0.2,0.5,71.5,0.0,,,0.0,286,0,n/a,2026-05-08T09:42:49Z
2026-05-08 11:48:48,13.5,10.2,1006.2,NNE,14,1.8,3.2,71.6,0.0,,,0.0,298,0,n/a,2026-05-08T09:48:48Z
2026-05-08 11:54:48,13.1,9.7,1006.0,ENE,67,0.9,1.3,67.9,0.0,,,0.0,310,0,n/a,2026-05-08T09:54:48Z
2026-05-08 11:57:45,13.2,9.9,1006.0,West,270,0.6,0.6,68.1,0.0,,,0.0,312,0,n/a,2026-05-08T09:57:45Z
2026-05-08 12:00:48,13.3,9.7,1006.2,East,90,3.2,3.3,66.5,0.0,,,0.0,304,0,n/a,2026-05-08T10:00:48Z
2026-05-08 12:09:49,13.6,10,1006.0,WSW,244,1.8,2.1,67.9,0.0,,,0.0,306,0,n/a,2026-05-08T10:09:49Z
2026-05-08 12:12:48,13.6,10.4,1006.0,West,262,0.8,1.1,68.1,0.0,,,0.0,300,0,n/a,2026-05-08T10:12:48Z
2026-05-08 12:18:49,13.6,10.6,1006.0,NNE,12,0.5,0.7,67.8,0.0,,,0.0,302,0,n/a,2026-05-08T10:18:49Z
2026-05-08 12:24:48,13.8,10.4,1006.0,ENE,65,6.4,9.1,66.3,0.0,,,0.0,334,0,n/a,2026-05-08T10:24:48Z
2026-05-08 12:27:48,13.8,10.2,1006.0,East,90,5.6,5.9,66.5,0.0,,,0.0,324,0,n/a,2026-05-08T10:27:48Z
2026-05-08 12:33:49,14.1,10.1,1006.0,NE,54,4.6,5.2,66.3,0.0,,,0.0,390,0,n/a,2026-05-08T10:33:49Z
2026-05-08 12:39:48,14.2,10.1,1005.7,East,82,2.5,3.3,65.3,0.0,,,0.0,408,0,n/a,2026-05-08T10:39:48Z
2026-05-08 12:42:49,14.3,10.1,1005.7,ENE,78,2.6,2.6,64.4,0.0,,,0.0,406,0,n/a,2026-05-08T10:42:49Z
2026-05-08 12:48:48,14.4,10.3,1005.7,NNE,18,1.7,2.7,64.4,0.0,,,0.0,368,0,n/a,2026-05-08T10:48:48Z
2026-05-08 12:54:49,14.6,10.5,1005.7,East,85,3.2,3.9,64.8,0.0,,,0.0,286,0,n/a,2026-05-08T10:54:49Z
2026-05-08 12:57:48,14.4,10.6,1005.7,ESE,112,1.2,1.3,65.2,0.0,,,0.0,270,0,n/a,2026-05-08T10:57:48Z
2026-05-08 13:03:48,14.7,10.9,1005.7,NW,315,0.7,1.6,65.8,0.0,,,0.0,290,0,n/a,2026-05-08T11:03:48Z
2026-05-08 13:09:48,14.6,11,1005.7,East,80,2,2.6,65.3,0.0,,,0.0,292,0,n/a,2026-05-08T11:09:48Z
2026-05-08 13:12:48,14.2,11.1,1006.0,SE,135,0,0,65.2,0.0,,,0.0,274,0,n/a,2026-05-08T11:12:48Z
2026-05-08 13:18:48,14.5,10.9,1006.0,ESE,117,0.7,1.1,64.4,0.0,,,0.0,262,0,n/a,2026-05-08T11:18:48Z
2026-05-08 13:24:45,14.4,10.8,1005.7,ENE,60,3.6,3.9,63.9,0.0,,,0.0,272,0,n/a,2026-05-08T11:24:45Z
2026-05-08 13:27:48,14.8,11.2,1005.7,North,8,2.6,3.2,65.6,0.0,,,0.0,276,0,n/a,2026-05-08T11:27:48Z
2026-05-08 13:33:48,14.9,11.3,1005.7,WNW,290,2.6,3.3,65,0.0,,,0.0,308,0,n/a,2026-05-08T11:33:48Z
2026-05-08 13:39:48,14.8,11.3,1005.7,WSW,239,1.9,3.3,64.1,0.0,,,0.0,354,0,n/a,2026-05-08T11:39:48Z
2026-05-08 13:42:49,14.4,11.4,1005.7,North,0,3.2,3.3,63.6,0.0,,,0.0,312,0,n/a,2026-05-08T11:42:49Z
2026-05-08 13:48:49,14.7,11.4,1005.7,SSW,202,2,5.9,63.5,0.0,,,0.0,304,0,n/a,2026-05-08T11:48:49Z
2026-05-08 13:54:49,15,11.2,1005.7,SSE,150,1.9,3,62.7,0.0,,,0.0,332,0,n/a,2026-05-08T11:54:49Z
2026-05-08 13:57:49,15.1,10.7,1005.7,ENE,77,3.5,3.8,61.1,0.0,,,0.0,330,0,n/a,2026-05-08T11:57:49Z
2026-05-08 14:03:48,15.5,11.3,1005.7,North,358,3.1,4.5,63.7,0.0,,,0.0,370,0,n/a,2026-05-08T12:03:48Z
2026-05-08 14:09:49,15.7,11.5,1005.7,East,90,2.4,3.3,62.9,0.0,,,0.0,354,0,n/a,2026-05-08T12:09:49Z
2026-05-08 14:12:48,15.4,11.4,1005.7,ENE,59,1.7,2.2,62.7,0.0,,,0.0,310,0,n/a,2026-05-08T12:12:48Z
2026-05-08 14:18:49,15.4,11.5,1005.7,ENE,63,5.5,9.2,63.1,0.0,,,0.0,330,0,n/a,2026-05-08T12:18:49Z
2026-05-08 14:24:45,15.3,11.5,1005.7,SSW,202,0.9,2.6,63.7,0.0,,,0.0,236,0,n/a,2026-05-08T12:24:45Z
2026-05-08 14:27:48,15.2,11.6,1005.7,NNE,22,0.5,1.1,63.5,0.0,,,0.0,200,0,n/a,2026-05-08T12:27:48Z
2026-05-08 14:33:48,15.2,11.5,1005.7,East,90,2.5,5.3,63.4,0.0,,,0.0,198,0,n/a,2026-05-08T12:33:48Z
2026-05-08 14:39:48,15.1,11.3,1005.7,East,93,2.9,3.3,63.4,0.0,,,0.0,200,0,n/a,2026-05-08T12:39:48Z
2026-05-08 14:42:48,15,11.1,1005.7,East,90,3.2,3.3,62.9,0.0,,,0.0,194,0,n/a,2026-05-08T12:42:48Z
2026-05-08 14:48:49,14.6,11.3,1005.7,ESE,112,5.8,6.4,65.2,0.0,,,0.0,192,0,n/a,2026-05-08T12:48:49Z
2026-05-08 14:54:49,14.7,11.5,1005.7,ENE,59,4.4,6.6,66.8,0.0,,,0.0,204,0,n/a,2026-05-08T12:54:49Z
2026-05-08 14:57:49,14.7,11.6,1005.7,East,79,4,4.1,66.1,0.0,,,0.0,212,0,n/a,2026-05-08T12:57:49Z
2026-05-08 15:03:48,14.7,11.4,1005.7,North,9,1.5,2,65.3,0.0,,,0.0,226,0,n/a,2026-05-08T13:03:48Z
2026-05-08 15:09:48,14.7,11.6,1006.0,ENE,58,2.6,3.3,65.6,0.0,,,0.0,236,0,n/a,2026-05-08T13:09:48Z
2026-05-08 15:12:48,14.7,11.2,1005.7,North,0,2,2.7,63.8,0.0,,,0.0,234,0,n/a,2026-05-08T13:12:48Z
2026-05-08 15:18:49,14.8,11.2,1005.7,ENE,72,5.3,5.8,63.2,0.0,,,0.0,250,0,n/a,2026-05-08T13:18:49Z
2026-05-08 15:24:49,15,10.9,1005.7,NNE,14,2.2,3.2,63.1,0.0,,,0.0,260,0,n/a,2026-05-08T13:24:49Z
2026-05-08 15:27:45,15,10.9,1005.7,ENE,67,4.6,4.6,61.8,0.0,,,0.0,268,0,n/a,2026-05-08T13:27:45Z
2026-05-08 15:33:49,15.2,11.4,1005.7,NNW,328,3.7,5.2,63.5,0.0,,,0.0,282,0,n/a,2026-05-08T13:33:49Z
2026-05-08 15:39:48,15.6,11.8,1005.7,North,353,3.8,6.8,63.7,0.0,,,0.0,302,0,n/a,2026-05-08T13:39:48Z
2026-05-08 15:42:49,15.7,11.9,1005.7,ENE,78,4,4.1,63.5,0.0,,,0.0,930,0,n/a,2026-05-08T13:42:49Z
2026-05-08 15:48:45,17,12.3,1005.7,ENE,67,1.4,1.9,62.7,0.0,,,0.0,918,0,n/a,2026-05-08T13:48:45Z
2026-05-08 15:54:49,16.7,12.1,1005.7,WNW,300,1.7,3.3,59.9,0.0,,,0.0,334,0,n/a,2026-05-08T13:54:49Z
2026-05-08 15:57:48,16.1,12.3,1005.7,North,11,2.6,2.6,60.4,0.0,,,0.0,274,0,n/a,2026-05-08T13:57:48Z
2026-05-08 16:03:48,15.8,11.4,1005.7,ENE,58,4.3,6.4,58.6,0.0,,,0.0,238,0,n/a,2026-05-08T14:03:48Z
2026-05-08 16:09:45,15,11.8,1005.7,NE,37,8.1,13.7,62.2,0.0,,,0.0,178,0,n/a,2026-05-08T14:09:45Z
2026-05-08 16:12:48,14.8,12.1,1005.7,NE,52,5.2,5.9,63.6,0.0,,,0.0,136,0,n/a,2026-05-08T14:12:48Z
2026-05-08 16:18:49,14.6,11.8,1005.7,NE,53,3.9,7.1,63.6,0.0,,,0.0,126,0,n/a,2026-05-08T14:18:49Z
2026-05-08 16:24:48,14.3,11.8,1005.7,ENE,65,3.3,7.4,64.8,0.0,,,0.0,114,0,n/a,2026-05-08T14:24:48Z
2026-05-08 16:27:48,14.3,11.5,1005.5,North,11,2.6,2.6,64.2,0.0,,,0.0,116,0,n/a,2026-05-08T14:27:48Z
2026-05-08 16:33:49,14.1,11.5,1005.7,NE,37,1.3,2,64.7,0.0,,,0.0,118,0,n/a,2026-05-08T14:33:49Z
2026-05-08 16:39:48,14,11.5,1005.5,ENE,61,7.3,7.8,65.6,0.0,,,0.0,126,0,n/a,2026-05-08T14:39:48Z
2026-05-08 16:42:49,13.9,11.3,1005.5,NE,47,6.8,7.3,65.8,0.0,,,0.0,132,0,n/a,2026-05-08T14:42:49Z
2026-05-08 16:48:49,14.2,11.6,1005.2,NNE,14,1,1.3,66.7,0.0,,,0.0,140,0,n/a,2026-05-08T14:48:49Z
2026-05-08 16:54:49,14.1,11.6,1005.2,NNE,22,2.2,2.6,66.5,0.0,,,0.0,142,0,n/a,2026-05-08T14:54:49Z
2026-05-08 16:57:48,14.2,11.7,1005.2,NE,47,1.2,1.3,67,0.0,,,0.0,142,0,n/a,2026-05-08T14:57:48Z
2026-05-08 17:03:49,14,11.6,1005.2,NNE,32,3.9,5.2,66.7,0.0,,,0.0,154,0,n/a,2026-05-08T15:03:49Z
2026-05-08 17:09:45,14.3,11.8,1005.2,North,0,1.3,2,66.9,0.0,,,0.0,156,0,n/a,2026-05-08T15:09:45Z
2026-05-08 17:12:48,14.1,11.7,1005.2,NE,45,1.8,2,66.3,0.0,,,0.0,160,0,n/a,2026-05-08T15:12:48Z
2026-05-08 17:18:48,14.1,11.5,1005.2,NNE,15,1.9,2.6,65.5,0.0,,,0.0,172,0,n/a,2026-05-08T15:18:48Z
2026-05-08 17:21:49,14.3,11.8,1005.2,ENE,66,7.5,7.9,66.4,0.0,,,0.0,178,0,n/a,2026-05-08T15:21:49Z
2026-05-08 17:27:48,14.8,11.6,1005.2,NNE,32,4.2,4.6,65.9,0.0,,,0.0,678,0,n/a,2026-05-08T15:27:48Z
2026-05-08 17:33:48,16.5,12.3,1005.2,ENE,78,5.9,6.5,67.3,0.0,,,0.0,670,0,n/a,2026-05-08T15:33:48Z
2026-05-08 17:36:48,17,12,1005.2,East,90,10.8,11,64.8,0.0,,,0.0,604,0,n/a,2026-05-08T15:36:48Z
2026-05-08 17:42:49,17.3,12.3,1005.2,East,90,6.2,6.5,65.7,0.0,,,0.0,578,0,n/a,2026-05-08T15:42:49Z
2026-05-08 17:48:48,16.3,11.7,1005.2,East,85,13.8,16.1,64.4,0.0,,,0.0,574,0,n/a,2026-05-08T15:48:48Z
2026-05-08 17:54:49,16.2,11.9,1005.2,ENE,67,11.6,12.9,65.7,0.0,,,0.0,566,0,n/a,2026-05-08T15:54:49Z
2026-05-08 17:57:45,15.9,11.6,1005.2,ENE,67,16.3,16.3,65.6,0.0,,,0.0,160,0,n/a,2026-05-08T15:57:45Z
2026-05-08 18:03:48,16.7,12,1005.2,ENE,69,8.4,13.8,66.6,0.0,,,0.0,544,0,n/a,2026-05-08T16:03:48Z
2026-05-08 18:09:49,16.3,11.7,1005.2,East,80,12.5,19.2,64.6,0.0,,,0.0,356,0,n/a,2026-05-08T16:09:49Z
2026-05-08 18:12:45,15.6,11.3,1005.2,ENE,67,13.6,13.7,64.9,0.0,,,0.0,388,0,n/a,2026-05-08T16:12:45Z
2026-05-08 18:18:49,15.7,11.3,1005.2,East,79,7.5,7.9,66.6,0.0,,,0.0,480,0,n/a,2026-05-08T16:18:49Z
2026-05-08 18:24:49,16,11.5,1005.2,NE,51,10.7,13.1,66.6,0.0,,,0.0,472,0,n/a,2026-05-08T16:24:49Z
2026-05-08 18:27:49,16.3,11.7,1005.2,NE,45,5.5,5.9,66.8,0.0,,,0.0,428,0,n/a,2026-05-08T16:27:49Z
2026-05-08 18:33:49,16.5,11.7,1005.2,NNE,19,2.9,4.6,66,0.0,,,0.0,444,0,n/a,2026-05-08T16:33:49Z
2026-05-08 18:39:49,16.1,11.5,1005.2,NE,37,5.1,5.9,65,0.0,,,0.0,436,0,n/a,2026-05-08T16:39:49Z
2026-05-08 18:42:49,15.8,11.4,1005.2,East,90,5.1,5.2,65.1,0.0,,,0.0,306,0,n/a,2026-05-08T16:42:49Z
2026-05-08 18:48:49,14.9,11.2,1005.2,ENE,64,5.6,11.2,65.3,0.0,,,0.0,154,0,n/a,2026-05-08T16:48:49Z
2026-05-08 18:54:48,14.4,11,1005.2,East,81,9.7,13.1,65.7,0.0,,,0.0,178,0,n/a,2026-05-08T16:54:48Z
2026-05-08 18:57:48,14.4,11.1,1005.5,East,79,6.5,7.2,67.3,0.0,,,0.0,374,0,n/a,2026-05-08T16:57:48Z
2026-05-08 19:00:48,14.4,11,1005.2,East,80,3.9,4.6,66.5,0.0,,,0.0,414,0,n/a,2026-05-08T17:00:48Z
2026-05-08 19:09:49,13.9,10.9,1005.5,ENE,58,10.4,13.9,67.3,0.0,,,0.0,382,0,n/a,2026-05-08T17:09:49Z
2026-05-08 19:12:49,13.7,10.9,1005.5,ENE,67,12.3,13.6,67.5,0.0,,,0.0,338,0,n/a,2026-05-08T17:12:49Z
2026-05-08 19:18:48,13.5,11,1005.5,ENE,70,11.7,14.9,68.2,0.0,,,0.0,322,0,n/a,2026-05-08T17:18:48Z
2026-05-08 19:21:49,13.1,10.8,1005.2,ENE,78,10.1,10.7,68.5,0.0,,,0.0,300,0,n/a,2026-05-08T17:21:49Z
2026-05-08 19:27:48,12.8,10.7,1005.2,North,0,9.9,10,68.8,0.0,,,0.0,274,0,n/a,2026-05-08T17:27:48Z
2026-05-08 19:30:48,12.6,10.7,1005.2,East,79,14.5,15.4,69.3,0.0,,,0.0,264,0,n/a,2026-05-08T17:30:48Z
2026-05-08 19:39:48,12.3,10.6,1005.2,East,81,11.7,17.4,70,0.0,,,0.0,242,0,n/a,2026-05-08T17:39:48Z
2026-05-08 19:42:45,12,10.7,1005.5,North,0,11.7,11.8,70.1,0.0,,,0.0,214,0,n/a,2026-05-08T17:42:45Z
2026-05-08 19:48:48,11.7,10.6,1005.5,NE,44,9.9,13,70.7,0.0,,,0.0,202,0,n/a,2026-05-08T17:48:48Z
2026-05-08 19:54:49,11.6,10.6,1005.7,ENE,69,8.9,9.8,70.7,0.0,,,0.0,180,0,n/a,2026-05-08T17:54:49Z
2026-05-08 19:57:49,11.5,10.5,1005.5,ENE,65,4.1,4.6,70.9,0.0,,,0.0,156,0,n/a,2026-05-08T17:57:49Z
2026-05-08 20:03:49,11.1,10.5,1005.7,East,82,14.4,19.1,71.2,0.0,,,0.0,146,0,n/a,2026-05-08T18:03:49Z
2026-05-08 20:09:48,10.8,10.4,1005.7,ENE,57,9.6,12.9,72,0.0,,,0.0,122,0,n/a,2026-05-08T18:09:48Z
2026-05-08 20:12:49,10.7,10.4,1005.7,ENE,67,8.3,8.4,72.3,0.0,,,0.0,100,0,n/a,2026-05-08T18:12:49Z
2026-05-08 20:18:49,10.4,10.3,1005.7,NE,41,6,7.9,72.4,0.0,,,0.0,88,0,n/a,2026-05-08T18:18:49Z
2026-05-08 20:24:49,10.2,10.2,1005.7,NE,38,10.1,15.1,72.7,0.0,,,0.0,20,0,n/a,2026-05-08T18:24:49Z
2026-05-08 20:33:48,9.9,10.1,1005.7,ENE,65,13.3,17.9,73.3,0.0,,,0.0,12,0,n/a,2026-05-08T18:33:48Z
2026-05-08 20:39:48,9.8,10,1006.0,NE,47,9.3,11,73.1,0.0,,,0.0,10,0,n/a,2026-05-08T18:39:48Z
2026-05-08 20:42:49,9.6,10,1005.7,NE,47,5.9,6.6,73.6,0.0,,,0.0,8,0,n/a,2026-05-08T18:42:49Z
2026-05-08 20:48:48,9.6,10.1,1006.0,NNE,20,5.4,6.4,73.6,0.0,,,0.0,6,0,n/a,2026-05-08T18:48:48Z
2026-05-08 20:51:48,9.4,10,1006.0,NE,53,5.7,7.2,74,0.0,,,0.0,4,0,n/a,2026-05-08T18:51:48Z
2026-05-08 20:57:48,9.3,10.1,1006.0,ENE,78,11.3,11.8,75.1,0.0,,,0.0,4,0,n/a,2026-05-08T18:57:48Z
2026-05-08 21:03:49,9.2,9.9,1006.2,NE,54,8.4,10.1,75.4,0.0,,,0.0,2,0,n/a,2026-05-08T19:03:49Z
2026-05-08 21:09:48,9,9.9,1006.2,ENE,70,8.5,12.9,75.4,0.0,,,0.0,2,0,n/a,2026-05-08T19:09:48Z
2026-05-08 21:12:49,9,10,1006.2,ENE,67,10.6,12.2,76.1,0.0,,,0.0,2,0,n/a,2026-05-08T19:12:49Z
2026-05-08 21:18:49,9,9.9,1006.2,ENE,71,9.1,13.7,76.6,0.0,,,0.0,2,0,n/a,2026-05-08T19:18:49Z
2026-05-08 21:24:48,8.8,9.9,1006.2,ENE,57,10,10.6,77,0.0,,,0.0,2,0,n/a,2026-05-08T19:24:48Z
2026-05-08 21:27:45,8.6,9.8,1006.2,North,0,7.8,7.9,76.9,0.0,,,0.0,0,0,n/a,2026-05-08T19:27:45Z
2026-05-08 21:33:45,8.6,9.7,1006.5,NE,52,12.7,13,77.4,0.0,,,0.0,2,0,n/a,2026-05-08T19:33:45Z
2026-05-08 21:39:48,8.6,9.7,1006.5,NE,39,6.3,10.3,77.4,0.0,,,0.0,2,0,n/a,2026-05-08T19:39:48Z
2026-05-08 21:42:49,8.6,9.7,1006.5,ENE,67,8,10.1,77.8,0.0,,,0.0,0,0,n/a,2026-05-08T19:42:49Z
2026-05-08 21:48:49,8.5,9.7,1006.5,East,81,9.5,12.5,77.8,0.0,,,0.0,2,0,n/a,2026-05-08T19:48:49Z
2026-05-08 21:57:45,8.4,9.6,1006.5,ENE,67,13,13,78.1,0.0,,,0.0,0,0,n/a,2026-05-08T19:57:45Z
2026-05-08 22:03:48,8.4,9.6,1006.7,North,4,9,15.5,78.7,0.0,,,0.0,0,0,n/a,2026-05-08T20:03:48Z
2026-05-08 22:09:48,8.4,9.5,1006.7,East,84,15.9,17.3,79.3,0.0,,,0.0,2,0,n/a,2026-05-08T20:09:48Z
2026-05-08 22:12:45,8.3,9.4,1006.7,East,90,15.6,15.6,79.1,0.0,,,0.0,0,0,n/a,2026-05-08T20:12:45Z
2026-05-08 22:18:48,8.2,9.4,1006.7,ENE,62,13.1,18.4,79.2,0.0,,,0.0,2,0,n/a,2026-05-08T20:18:48Z
2026-05-08 22:24:48,8.2,9.4,1006.7,ENE,72,10.3,12.4,79.3,0.0,,,0.0,2,0,n/a,2026-05-08T20:24:48Z
2026-05-08 22:27:48,8.3,9.3,1006.7,East,90,15.2,15.5,79.7,0.0,,,0.0,0,0,n/a,2026-05-08T20:27:48Z
2026-05-08 22:33:49,8.2,9.2,1006.7,ENE,65,11.5,13.8,79.4,0.0,,,0.0,2,0,n/a,2026-05-08T20:33:49Z
2026-05-08 22:39:49,8.1,9.3,1006.7,ENE,78,8.5,13.4,79.3,0.0,,,0.0,2,0,n/a,2026-05-08T20:39:49Z
2026-05-08 22:42:48,8.2,9.2,1006.7,East,90,15.8,18.1,79.2,0.0,,,0.0,0,0,n/a,2026-05-08T20:42:48Z
2026-05-08 22:48:48,8,9.1,1007.0,ENE,67,13.8,16.2,79.3,0.0,,,0.0,2,0,n/a,2026-05-08T20:48:48Z
2026-05-08 22:54:49,7.9,9,1007.0,ENE,68,14,16.7,79.3,0.0,,,0.0,2,0,n/a,2026-05-08T20:54:49Z
2026-05-08 22:57:48,7.8,9.1,1007.0,NE,46,9.8,10.3,80,0.0,,,0.0,2,0,n/a,2026-05-08T20:57:48Z
2026-05-08 23:03:48,7.7,9,1007.0,East,82,12.3,14.9,80,0.0,,,0.0,2,0,n/a,2026-05-08T21:03:48Z
2026-05-08 23:09:49,7.7,8.9,1007.0,ENE,68,12.1,13.8,80.1,0.0,,,0.0,2,0,n/a,2026-05-08T21:09:49Z
2026-05-08 23:12:48,7.8,8.9,1006.7,ENE,67,17.2,17.4,80.5,0.0,,,0.0,2,0,n/a,2026-05-08T21:12:48Z
2026-05-08 23:18:45,7.6,8.9,1007.0,East,90,13.8,15.8,80.4,0.0,,,0.0,0,0,n/a,2026-05-08T21:18:45Z
2026-05-08 23:24:48,7.7,8.9,1007.0,NE,36,7.4,9.8,80.1,0.0,,,0.0,2,0,n/a,2026-05-08T21:24:48Z
2026-05-08 23:27:49,7.6,8.9,1007.0,East,80,4.2,5.2,80.2,0.0,,,0.0,0,0,n/a,2026-05-08T21:27:49Z
2026-05-08 23:33:45,7.6,8.8,1007.0,ENE,62,10.7,12.9,80,0.0,,,0.0,0,0,n/a,2026-05-08T21:33:45Z
2026-05-08 23:39:48,7.6,8.8,1006.7,NE,54,9.9,13.5,80.3,0.0,,,0.0,2,0,n/a,2026-05-08T21:39:48Z
2026-05-08 23:42:48,7.6,8.9,1007.0,NNE,19,2.9,3.3,80.4,0.0,,,0.0,0,0,n/a,2026-05-08T21:42:48Z